»·PEaware :: N25EL KSNA-KAVX

N25EL :: KSNA-KAVX

FLIGHT INFORMATION

Flight Status: Arrived
Operator: Privately registered:
United States
More flights under this callsign
Pilot: Anonymous 31931 (31931)
Aircraft: MOONEY M-20 201 202 205 220 ATS MSE
(M20P)
More flights by this aircraft type
Origin: KSNA John Wayne-Orange Co
United States
Destination: KAVX Catalina
United States
More flights between these airports :: More routes between these airports
Route: SLI V21 SXC
File this flight plan on PilotEdge
Remarks: Request VOR / DME-B approach for the I-7 rating
Altitude:
(Current/Filed)
4,000ft
Speed:
(Current/Filed)
150kts
Departed: 21-Oct-20 02:46 PM
Arrived: 21-Oct-20 03:32 PM
Distance/Time
Traveled:
32nm/0:46
Distance/Time
To Go:
Arrived

Flight Plot

Page will automatically refresh every two minutes.


Map Options




Map Legend


Flown Route
Filed Route
Departure Airport
Arrival Airport
Navaid (VOR, NDB)
Fix

Horizontal Profiles

Position Reports

Time Latitude Longitude Heading Altitude Ground
Speed
21-Oct-20 14:28 33.675624 -117.871064 40 58ft 0kts
21-Oct-20 14:29 33.675624 -117.871064 40 58ft 0kts
21-Oct-20 14:30 33.675624 -117.871064 40 58ft 0kts
21-Oct-20 14:31 33.675624 -117.871064 40 58ft 0kts
21-Oct-20 14:32 33.675624 -117.871064 40 58ft 0kts
21-Oct-20 14:33 33.675624 -117.871064 40 58ft 0kts
21-Oct-20 14:34 33.675624 -117.871064 40 58ft 0kts
21-Oct-20 14:35 33.675624 -117.871064 40 58ft 0kts
21-Oct-20 14:36 33.675624 -117.871064 40 58ft 0kts
21-Oct-20 14:37 33.675624 -117.871064 40 58ft 0kts
21-Oct-20 14:38 33.675624 -117.871064 40 58ft 0kts
21-Oct-20 14:39 33.675624 -117.871064 40 58ft 0kts
21-Oct-20 14:40 33.675624 -117.871064 40 58ft 0kts
21-Oct-20 14:41 33.675688 -117.870991 48 58ft 5kts
21-Oct-20 14:42 33.679274 -117.868103 21 58ft 27kts
21-Oct-20 14:43 33.681217 -117.866544 108 58ft 0kts
21-Oct-20 14:44 33.680509 -117.865729 193 58ft 8kts
21-Oct-20 14:45 33.664337 -117.879843 231 568ft 113kts
21-Oct-20 14:46 33.643248 -117.910584 229 1882ft 122kts
21-Oct-20 14:47 33.620940 -117.941051 237 3231ft 115kts
21-Oct-20 14:48 33.600124 -117.974534 233 3985ft 144kts
21-Oct-20 14:49 33.574686 -118.017844 237 4096ft 167kts
21-Oct-20 14:50 33.548224 -118.067729 237 4073ft 172kts
21-Oct-20 14:51 33.523339 -118.119166 243 4008ft 175kts
21-Oct-20 14:52 33.499443 -118.171981 239 3929ft 177kts
21-Oct-20 14:53 33.475062 -118.222636 241 4053ft 175kts
21-Oct-20 14:54 33.448530 -118.272817 235 4141ft 175kts
21-Oct-20 14:55 33.424400 -118.321726 240 4081ft 180kts
21-Oct-20 14:56 33.399429 -118.372016 237 3983ft 170kts
21-Oct-20 14:57 33.378169 -118.421877 271 4014ft 166kts
21-Oct-20 14:58 33.413791 -118.434907 36 4081ft 174kts
21-Oct-20 14:59 33.455010 -118.404511 9 4011ft 178kts
21-Oct-20 15:00 33.500110 -118.396732 4 3653ft 163kts
21-Oct-20 15:01 33.539574 -118.403856 318 3474ft 144kts
21-Oct-20 15:02 33.571460 -118.435040 327 3385ft 154kts
21-Oct-20 15:03 33.583605 -118.407333 142 3480ft 142kts
21-Oct-20 15:04 33.549665 -118.378221 174 3412ft 151kts
21-Oct-20 15:05 33.508295 -118.387979 194 2641ft 150kts
21-Oct-20 15:06 33.471397 -118.397672 194 2174ft 116kts
21-Oct-20 15:07 33.434996 -118.406155 185 1052ft 140kts
21-Oct-20 15:08 33.411269 -118.419338 204 2458ft 76kts
21-Oct-20 15:09 33.393620 -118.445033 293 2454ft 137kts
21-Oct-20 15:10 33.425600 -118.439772 79 2519ft 145kts
21-Oct-20 15:11 33.423000 -118.388220 113 2412ft 142kts
21-Oct-20 15:12 33.399789 -118.395920 246 2529ft 120kts
21-Oct-20 15:13 33.419118 -118.390882 106 3307ft 124kts
21-Oct-20 15:14 33.387337 -118.396487 216 3603ft 161kts
21-Oct-20 15:15 33.346391 -118.420874 206 3514ft 158kts
21-Oct-20 15:16 33.338353 -118.462596 306 3469ft 153kts
21-Oct-20 15:17 33.361762 -118.457895 69 3435ft 155kts
21-Oct-20 15:18 33.389951 -118.427295 354 3568ft 152kts
21-Oct-20 15:19 33.430611 -118.410777 9 3579ft 154kts
21-Oct-20 15:20 33.474486 -118.405612 350 3474ft 157kts
21-Oct-20 15:21 33.507003 -118.437798 318 3434ft 145kts
21-Oct-20 15:22 33.528682 -118.428929 132 3403ft 140kts
21-Oct-20 15:23 33.498562 -118.398855 152 3426ft 139kts
21-Oct-20 15:24 33.457073 -118.403472 186 2906ft 156kts
21-Oct-20 15:25 33.412634 -118.412459 196 2363ft 155kts
21-Oct-20 15:26 33.411665 -118.446149 1 2293ft 138kts
21-Oct-20 15:27 33.428108 -118.408910 73 2432ft 133kts
21-Oct-20 15:28 33.433341 -118.368085 154 2366ft 136kts
21-Oct-20 15:29 33.411710 -118.384531 245 2623ft 114kts
21-Oct-20 15:30 33.407479 -118.411659 232 1525ft 67kts
21-Oct-20 15:31 33.404433 -118.415194 140 1543ft 4kts

Navigation Log

Ident Type
Flight plan parsing failed, navigation log unavailable